Colo, Iowa
Current Conditions -  °F | °C
As of 3:53 PM on Friday 28 Nov 2014 (Local Time) from KAMW Reporting Station
Clear Clear  
Wind Chill: 24°   Ceiling: Unl
Heat Index: 32°   Visibility: 9mi
Dew Point: 25°   Wind: 10mph
Humidity: 75%   Direction: 120°ESE
Pressure: 29.79"   Gusts: NA
Location:  42.02°N, 93.32°W
Report Text: KAMW 282153Z AUTO 12009KT 9SM CLR 00/M04 A2979 RMK AO2 SLP097 T00001039
Loading
Personal Weather Stations






























Interactive Weather Map New forecast layout! Learn more

10-Day Weather Forecast

Advertisements
Track Severe Weather on mobile